^^
Datos históricos de la estación: Murcia-Puente Tocinos
Diario Informe para Octubre 12, 2019 Unidades:  Ingés    Métrico   Ambas
Diario Semanal Mensual Anual
  Máxima: Mínima: Promedio:
Temperatura: 79.2 °F 68.4 °F 72.3 °F
Punto de rocio: 69.1 °F 62.6 °F 65.5 °F
Humedad: 90% 65.6% 79%
Velocidad viento: 9.7mph 0mph 4mph
Racha viento: 17.5mph - -
Viento- - SSE
Presión: 30.1 in 29.9 in -
Precipitación: 0 in    
 
 
Tabla de datos para Octubre 12, 2019
Hora Temperatura Punto de rocio Presión Viento Velocidad viento Racha viento Humedad Intensidad lluvia(por hora) Nubes
00:04 70.3 °F 65.3 °F 30.1 in NO 1.4 mph 3 mph 84% 0 in
00:09 70.3 °F 65.3 °F 30.1 in NO 1.4 mph 3.5 mph 84% 0 in
00:14 70.3 °F 65.3 °F 30.1 in Oeste 1.4 mph 5 mph 84% 0 in
00:19 70.3 °F 65.3 °F 30.1 in OSO 1.6 mph 4.7 mph 84% 0 in
00:24 70.3 °F 65.3 °F 30.1 in SO 2.4 mph 5 mph 84% 0 in
00:29 70.3 °F 65.3 °F 30.1 in SO 2.2 mph 2.9 mph 84% 0 in
00:34 70.3 °F 65.3 °F 30.1 in OSO 1.4 mph 4.6 mph 84% 0 in
00:39 70.3 °F 65.3 °F 30.1 in Oeste 1.5 mph 5 mph 84% 0 in
00:44 70.3 °F 65.3 °F 30.1 in Oeste 2 mph 4.3 mph 84% 0 in
00:49 70.3 °F 65.3 °F 30.1 in Oeste 2 mph 5 mph 84% 0 in
00:54 70.3 °F 65.3 °F 30.1 in Oeste 2 mph 4 mph 84% 0 in
00:59 70.3 °F 65.3 °F 30.1 in Oeste 2 mph 4.6 mph 84% 0 in
01:04 70.2 °F 65.1 °F 30.1 in ONO 2 mph 5 mph 84% 0 in
01:09 70.2 °F 65.1 °F 30.1 in Oeste 2 mph 4 mph 84% 0 in
01:14 70.2 °F 65.1 °F 30.1 in Oeste 1.8 mph 4.7 mph 84% 0 in
01:19 70.3 °F 65.3 °F 30.1 in Oeste 1.9 mph 5 mph 84% 0 in
01:24 70.3 °F 65.3 °F 30.1 in Oeste 2.4 mph 5 mph 84% 0 in
01:29 70.3 °F 65.3 °F 30.1 in Oeste 2.3 mph 5 mph 84% 0 in
01:34 70.3 °F 65.3 °F 30.1 in OSO 2 mph 5 mph 84% 0 in
01:39 70.3 °F 65.3 °F 30.1 in OSO 2 mph 5 mph 84% 0 in
01:44 70.3 °F 65.3 °F 30.1 in OSO 1.8 mph 3 mph 84% 0 in
01:49 70.3 °F 64.9 °F 30.1 in OSO 1.4 mph 2 mph 83.3% 0 in
01:54 70.3 °F 64.9 °F 30.1 in Calm     83% 0 in
01:59 70.3 °F 64.9 °F 30.1 in Calm     83% 0 in
02:04 70.3 °F 64.9 °F 30.1 in Calm     83% 0 in
02:09 70.2 °F 65.1 °F 30 in Calm     83.9% 0 in
02:14 70.2 °F 65.1 °F 30 in Calm     84% 0 in
02:19 70.2 °F 64.9 °F 30 in Calm     84% 0 in
02:24 70 °F 64.9 °F 30 in Calm     84% 0 in
02:29 69.8 °F 64.8 °F 30 in Calm   2.4 mph 84% 0 in
02:34 69.6 °F 64.6 °F 30 in Calm   3.6 mph 84% 0 in
02:39 69.6 °F 64.6 °F 30 in OSO 0.4 mph 4 mph 84.2% 0 in
02:44 69.4 °F 64.8 °F 30 in OSO 1.8 mph 4 mph 85% 0 in
02:49 69.4 °F 64.8 °F 30 in OSO 1.9 mph 3.5 mph 85% 0 in
02:54 69.4 °F 64.8 °F 30 in OSO 2 mph 3 mph 85% 0 in
02:59 69.4 °F 64.6 °F 30 in OSO 1.9 mph 3 mph 85% 0 in
03:04 69.3 °F 64.6 °F 30 in OSO 1.4 mph 2.3 mph 85% 0 in
03:09 69.4 °F 64.8 °F 30 in OSO 1.1 mph 2.3 mph 85% 0 in
03:14 69.4 °F 64.8 °F 30 in Calm   4.6 mph 85% 0 in
03:19 69.4 °F 64.8 °F 30 in OSO 0.3 mph 5 mph 85% 0 in
03:24 69.4 °F 64.8 °F 30 in OSO 1.8 mph 3 mph 85% 0 in
03:29 69.4 °F 64.8 °F 30 in OSO 1.8 mph 4.6 mph 85% 0 in
03:34 69.4 °F 64.8 °F 30 in OSO 1.8 mph 5 mph 85% 0 in
03:39 69.4 °F 64.8 °F 30 in Oeste 2.1 mph 5 mph 85% 0 in
03:44 69.4 °F 64.8 °F 30 in Oeste 2.9 mph 5 mph 85% 0 in
03:49 69.4 °F 64.8 °F 30 in Oeste 2.7 mph 5 mph 85% 0 in
03:54 69.4 °F 64.4 °F 30 in Oeste 2 mph 3 mph 84.1% 0 in
03:59 69.4 °F 64.4 °F 30 in Oeste 1.6 mph 2.4 mph 84% 0 in
04:04 69.4 °F 64.4 °F 30 in Calm   2 mph 84% 0 in
04:09 69.4 °F 64.4 °F 30 in Calm   2 mph 84% 0 in
04:14 69.4 °F 64.4 °F 30 in Calm   2.9 mph 84% 0 in
04:19 69.4 °F 64.4 °F 30 in Oeste 0.3 mph 3 mph 84% 0 in
04:24 69.4 °F 64.4 °F 30 in Oeste 1.4 mph 2 mph 84% 0 in
04:29 69.3 °F 64.2 °F 30 in Oeste 1.1 mph 1.4 mph 84% 0 in
04:34 69.3 °F 64.6 °F 30 in Calm   4 mph 85% 0 in
04:39 69.3 °F 64.6 °F 30 in SSE 0.4 mph 5.8 mph 85% 0 in
04:44 69.1 °F 64.4 °F 30 in SSE 2 mph 6 mph 85% 0 in
04:49 68.9 °F 64.2 °F 30 in Sur 2.2 mph 5 mph 85% 0 in
04:54 68.7 °F 64.2 °F 30 in SSO 3.1 mph 6.2 mph 85.7% 0 in
04:59 68.5 °F 64.2 °F 30 in SSO 3.3 mph 6 mph 86% 0 in
05:04 68.5 °F 64.2 °F 30 in SSO 4 mph 6 mph 86% 0 in
05:09 68.5 °F 64.2 °F 30 in SSO 3.9 mph 6.2 mph 86% 0 in
05:14 68.5 °F 64.2 °F 30 in SO 3.6 mph 6 mph 86% 0 in
05:19 68.5 °F 64 °F 30 in OSO 3.6 mph 6 mph 85.2% 0 in
05:24 68.5 °F 63.9 °F 30 in Oeste 3.6 mph 6 mph 84.6% 0 in
05:29 68.7 °F 63.7 °F 30 in OSO 3.3 mph 5 mph 84% 0 in
05:34 68.7 °F 63.7 °F 30 in OSO 2 mph 7.4 mph 84% 0 in
05:39 68.7 °F 63.3 °F 30 in SO 2.4 mph 7 mph 83.1% 0 in
05:44 68.7 °F 63.3 °F 30 in SO 4 mph 6 mph 83% 0 in
05:49 68.7 °F 63.3 °F 30 in OSO 3.9 mph 6.2 mph 83% 0 in
05:54 68.7 °F 63.3 °F 30 in SO 3.1 mph 6.9 mph 83% 0 in
05:59 68.7 °F 63.1 °F 30 in OSO 3.3 mph 8.1 mph 82.7% 0 in
06:04 68.5 °F 63.1 °F 30 in OSO 4 mph 8 mph 82.8% 0 in
06:09 68.5 °F 63.1 °F 30 in OSO 4 mph 7 mph 83% 0 in
06:14 68.5 °F 63.1 °F 30 in OSO 4 mph 5 mph 83% 0 in
06:19 68.5 °F 63.1 °F 30 in OSO 3.5 mph 4.7 mph 83% 0 in
06:24 68.5 °F 63.1 °F 30 in Sur 1.8 mph 5 mph 83% 0 in
06:29 68.5 °F 63.1 °F 30 in Sur 2.1 mph 5.4 mph 83% 0 in
06:34 68.5 °F 63.1 °F 30 in Sur 3.1 mph 6 mph 83% 0 in
06:39 68.4 °F 63 °F 30 in Sur 3.1 mph 5 mph 83% 0 in
06:44 68.4 °F 63 °F 30 in SSO 3.1 mph 5.9 mph 83% 0 in
06:49 68.4 °F 63 °F 30 in SSO 3.1 mph 6 mph 83% 0 in
06:54 68.4 °F 63.1 °F 30 in SSO 3.1 mph 6 mph 83% 0 in
06:59 68.5 °F 63.1 °F 30 in SSO 3.1 mph 5 mph 83% 0 in
07:04 68.5 °F 63.1 °F 30 in SSO 3.1 mph 5 mph 83% 0 in
07:09 68.5 °F 63.1 °F 30 in SSO 2.9 mph 4.6 mph 83% 0 in
07:14 68.5 °F 63.1 °F 30 in SO 2 mph 5.8 mph 82.7% 0 in
07:19 68.5 °F 63 °F 30 in SO 2.2 mph 6.2 mph 82% 0 in
07:24 68.7 °F 63 °F 30 in SO 3.1 mph 6 mph 82% 0 in
07:29 68.7 °F 63 °F 30 in SO 2.9 mph 5 mph 82% 0 in
07:34 68.7 °F 63 °F 30 in SO 2 mph 4.6 mph 82% 0 in
07:39 68.7 °F 63 °F 30 in SO 2.1 mph 5 mph 82% 0 in
07:44 68.7 °F 63 °F 30 in SO 2.4 mph 5.9 mph 82% 0 in
07:49 68.7 °F 63 °F 30 in SO 2.5 mph 6 mph 82% 0 in
07:54 68.7 °F 63 °F 30 in SO 2.9 mph 5.9 mph 82% 0 in
07:59 68.5 °F 63 °F 30 in SSO 2.9 mph 6 mph 82% 0 in
08:04 68.5 °F 62.8 °F 30 in SSO 2.9 mph 5 mph 82% 0 in
08:09 68.5 °F 63 °F 30 in SO 2.9 mph 6.4 mph 82% 0 in
08:14 68.5 °F 63 °F 30 in SO 2.9 mph 7 mph 82% 0 in
08:19 68.7 °F 63 °F 30 in SO 3.1 mph 7 mph 82% 0 in
08:24 68.7 °F 63 °F 30 in SO 4 mph 10.4 mph 82% 0 in
08:29 68.7 °F 63 °F 30 in SO 4.2 mph 10 mph 82% 0 in
08:34 68.5 °F 62.8 °F 30 in SSO 4.7 mph 8 mph 82% 0 in
08:39 68.5 °F 63 °F 30 in SSO 4.6 mph 7 mph 82.5% 0 in
08:44 68.4 °F 63.1 °F 30 in SSO 4.3 mph 8.1 mph 83% 0 in
08:49 68.4 °F 63 °F 30 in SO 4.4 mph 8.5 mph 83% 0 in
08:54 68.4 °F 63 °F 30 in SSO 4.7 mph 9 mph 83% 0 in
08:59 68.4 °F 63 °F 30 in SSO 4.6 mph 9.2 mph 83% 0 in
09:04 68.4 °F 63 °F 30 in SSO 4.3 mph 9 mph 83% 0 in
09:09 68.4 °F 63 °F 30 in SSO 4.5 mph 7.4 mph 83% 0 in
09:14 68.4 °F 63 °F 30 in SSO 5.2 mph 8.1 mph 83% 0 in
09:19 68.4 °F 63 °F 30 in SO 5.2 mph 8.5 mph 83% 0 in
09:24 68.4 °F 63 °F 30 in SO 5.4 mph 9 mph 83% 0 in
09:29 68.4 °F 62.6 °F 30 in SSO 5.3 mph 8.1 mph 82.2% 0 in
09:34 68.4 °F 63 °F 30 in SSO 4.7 mph 8 mph 82.7% 0 in
09:39 68.4 °F 63 °F 30 in SO 4.6 mph 7.4 mph 83% 0 in
09:44 68.4 °F 62.8 °F 30 in SO 4.3 mph 8.1 mph 82.4% 0 in
09:49 68.5 °F 62.8 °F 30 in SSO 4.4 mph 8.1 mph 82% 0 in
09:54 68.5 °F 62.8 °F 30 in SSO 4.7 mph 9.2 mph 82% 0 in
09:59 68.5 °F 62.8 °F 30 in SSO 4.8 mph 9 mph 82% 0 in
10:04 68.5 °F 62.8 °F 30 in SSO 5.4 mph 7.4 mph 82% 0 in
10:09 68.7 °F 63.1 °F 30 in SO 5.3 mph 8.1 mph 82% 0 in
10:14 68.9 °F 62.8 °F 30 in SSO 4.7 mph 8.1 mph 81.1% 0 in
10:19 69.1 °F 63 °F 30 in SSO 4.8 mph 8.1 mph 81% 0 in
10:24 69.3 °F 63.1 °F 30 in SSO 5.4 mph 8.7 mph 81% 0 in
10:29 69.3 °F 63 °F 30 in SSO 5.5 mph 9.7 mph 80.6% 0 in
10:34 69.3 °F 62.8 °F 30 in SSO 5.9 mph 10 mph 80% 0 in
10:39 69.4 °F 63 °F 30 in SSO 5.9 mph 9 mph 80% 0 in
10:44 69.4 °F 63 °F 30 in SSO 5.9 mph 8 mph 80% 0 in
10:49 69.6 °F 63.1 °F 30 in SSO 5.8 mph 9.2 mph 80% 0 in
10:54 69.6 °F 63.1 °F 30 in SSO 5.2 mph 9 mph 79.9% 0 in
10:59 69.8 °F 63.1 °F 30 in SSO 5.2 mph 8.5 mph 79.1% 0 in
11:04 70 °F 63.1 °F 30 in Sur 5.2 mph 9 mph 79% 0 in
11:09 70 °F 63.1 °F 30 in Sur 5.1 mph 8 mph 79% 0 in
11:14 70.2 °F 63.3 °F 30 in Sur 4.7 mph 6.2 mph 79% 0 in
11:19 70.3 °F 63.3 °F 30 in SSO 4.5 mph 6.9 mph 78.6% 0 in
11:24 70.5 °F 63.3 °F 30 in SSO 4 mph 7.4 mph 78% 0 in
11:29 70.5 °F 63.1 °F 30 in SSO 4.2 mph 7 mph 77.7% 0 in
11:34 70.7 °F 63.3 °F 30 in Sur 4.7 mph 8.1 mph 77.9% 0 in
11:39 70.9 °F 63.3 °F 30 in SSO 4.8 mph 8.1 mph 77.1% 0 in
11:44 71.1 °F 63.3 °F 30 in Sur 5.2 mph 8.1 mph 77% 0 in
11:49 71.2 °F 63.7 °F 30 in Sur 5.2 mph 8 mph 77% 0 in
11:54 71.4 °F 63.7 °F 30 in Sur 5.2 mph 7.4 mph 76.2% 0 in
11:59 71.8 °F 63.7 °F 30 in SSE 5.1 mph 8.1 mph 75.9% 0 in
12:04 71.8 °F 63.7 °F 30 in Sur 4.7 mph 8.5 mph 75.6% 0 in
12:09 72 °F 63.9 °F 30 in Sur 5 mph 9.7 mph 75.5% 0 in
12:14 72.1 °F 63.9 °F 30 in Sur 5.9 mph 10 mph 75% 0 in
12:19 72.1 °F 63.9 °F 30 in Sur 5.9 mph 9.2 mph 75% 0 in
12:24 72.3 °F 63.9 °F 30 in Sur 5.9 mph 9.7 mph 75% 0 in
12:29 72.5 °F 64.2 °F 30 in Sur 6 mph 10 mph 75% 0 in
12:34 72.7 °F 64.2 °F 30 in Sur 6.2 mph 10.4 mph 75% 0 in
12:39 72.9 °F 64.2 °F 30 in Sur 6.2 mph 10 mph 74.5% 0 in
12:44 72.9 °F 64.2 °F 30 in SSO 6.2 mph 10.7 mph 74% 0 in
12:49 72.9 °F 64.2 °F 30 in SSO 6.3 mph 11.5 mph 74% 0 in
12:54 72.9 °F 64.2 °F 30 in Sur 6.9 mph 12 mph 74% 0 in
12:59 73 °F 64.2 °F 30 in Sur 6.9 mph 9.2 mph 74% 0 in
13:04 73 °F 64.4 °F 30 in SSO 6.9 mph 9 mph 74% 0 in
13:09 73.2 °F 64.4 °F 30 in Sur 6.7 mph 9.2 mph 73.9% 0 in
13:14 73.6 °F 64.4 °F 30 in Sur 5.9 mph 9 mph 73.1% 0 in
13:19 73.8 °F 64.6 °F 30 in SSE 5.8 mph 8.1 mph 73% 0 in
13:24 73.9 °F 64.4 °F 30 in Sur 5.4 mph 9.2 mph 72.1% 0 in
13:29 73.9 °F 64.4 °F 30 in Sur 5.6 mph 9.2 mph 72% 0 in
13:34 74.1 °F 64.6 °F 30 in Sur 6.2 mph 9 mph 72% 0 in
13:39 74.5 °F 64.6 °F 30 in SE 5.9 mph 8 mph 71.4% 0 in
13:44 74.8 °F 64.9 °F 30 in SO 4.7 mph 7 mph 71.2% 0 in
13:49 75.2 °F 64.8 °F 30 in Oeste 4.5 mph 7 mph 70.1% 0 in
13:54 75.6 °F 64.9 °F 30 in SO 3.6 mph 6.2 mph 69.7% 0 in
13:59 75.6 °F 65.1 °F 30 in SO 3.6 mph 6.9 mph 69.9% 0 in
14:04 75.7 °F 65.1 °F 30 in OSO 3.6 mph 8.5 mph 69.8% 0 in
14:09 75.9 °F 65.3 °F 30 in OSO 3.5 mph 9 mph 69.8% 0 in
14:14 76.5 °F 65.5 °F 30 in OSO 3.1 mph 6 mph 69% 0 in
14:19 77.2 °F 65.8 °F 30 in OSO 2.9 mph 6 mph 68.1% 0 in
14:24 77.7 °F 65.7 °F 30 in OSO 2 mph 6 mph 66.8% 0 in
14:29 78.1 °F 66 °F 30 in SO 2.1 mph 5.9 mph 66.4% 0 in
14:34 78.4 °F 66 °F 30 in Sur 2.4 mph 6 mph 66% 0 in
14:39 78.3 °F 66 °F 30 in Este 2.7 mph 8.1 mph 66% 0 in
14:44 77.7 °F 65.8 °F 30 in Este 4 mph 8 mph 66.8% 0 in
14:49 78.1 °F 66.4 °F 30 in NE 3.8 mph 8.1 mph 67.4% 0 in
14:54 78.3 °F 66.4 °F 30 in NNO 2.9 mph 9.2 mph 67% 0 in
14:59 78.3 °F 66.4 °F 30 in NNO 3.2 mph 9 mph 67% 0 in
15:04 78.4 °F 66.4 °F 30 in NNE 4 mph 11.5 mph 66.8% 0 in
15:09 78.4 °F 66.6 °F 30 in NNE 4.1 mph 12 mph 67% 0 in
15:14 78.4 °F 66.6 °F 30 in NNE 4.3 mph 9 mph 67% 0 in
15:19 78.3 °F 66.4 °F 30 in NNE 4.4 mph 9 mph 67% 0 in
15:24 78.1 °F 66.2 °F 30 in NE 4.7 mph 9.2 mph 67% 0 in
15:29 78.3 °F 66.4 °F 30 in NE 4.6 mph 9 mph 67% 0 in
15:34 78.3 °F 66.4 °F 30 in ENE 4.3 mph 9.2 mph 67% 0 in
15:39 78.1 °F 66.6 °F 30 in NE 4.5 mph 9.7 mph 67.8% 0 in
15:44 78.1 °F 66.7 °F 30 in ENE 5.4 mph 10.4 mph 68% 0 in
15:49 78.3 °F 66.7 °F 30 in NE 5.4 mph 10 mph 67.9% 0 in
15:54 78.3 °F 66.6 °F 30 in ENE 5.4 mph 8.5 mph 67.5% 0 in
15:59 78.3 °F 66.4 °F 30 in ENE 5.2 mph 9 mph 67% 0 in
16:04 78.4 °F 66.7 °F 30 in NE 4.3 mph 9 mph 67.4% 0 in
16:09 78.4 °F 66.6 °F 30 in Este 4.4 mph 9.2 mph 67.1% 0 in
16:14 78.8 °F 66.7 °F 30 in ENE 4.7 mph 9 mph 66.5% 0 in
16:19 79.2 °F 66.7 °F 30 in ENE 4.6 mph 9.2 mph 65.9% 0 in
16:24 79.2 °F 66.7 °F 30 in NE 4.3 mph 11.4 mph 65.9% 0 in
16:29 79 °F 67.3 °F 30 in NE 4.6 mph 12 mph 67.5% 0 in
16:34 78.6 °F 67.1 °F 30 in NE 5.9 mph 12.5 mph 68% 0 in
16:39 78.4 °F 67.1 °F 30 in ENE 5.9 mph 13 mph 68.1% 0 in
16:44 78.6 °F 66.7 °F 30 in ENE 5.9 mph 9 mph 67.1% 0 in
16:49 78.6 °F 66.9 °F 30 in NE 5.9 mph 14 mph 67.4% 0 in
16:54 78.8 °F 66.9 °F 30 in NE 5.9 mph 14 mph 67.1% 0 in
16:59 78.8 °F 66.4 °F 30 in NE 6.5 mph 14 mph 65.6% 0 in
17:04 78.6 °F 66.7 °F 30 in NE 8.1 mph 13 mph 66.9% 0 in
17:09 78.8 °F 66.4 °F 30 in NE 7.8 mph 14 mph 66% 0 in
17:14 78.6 °F 67.3 °F 30 in NE 6.4 mph 14 mph 68.1% 0 in
17:19 78.4 °F 67.5 °F 30 in ENE 6.3 mph 9.2 mph 69% 0 in
17:24 78.4 °F 67.3 °F 30 in ENE 5.9 mph 10.7 mph 68.7% 0 in
17:29 78.3 °F 67.1 °F 30 in NE 5.9 mph 11.4 mph 68.5% 0 in
17:34 78.3 °F 67.3 °F 30 in NE 5.9 mph 12.7 mph 69% 0 in
17:39 78.4 °F 67.6 °F 29.9 in NE 6 mph 13 mph 69.8% 0 in
17:44 78.4 °F 67.8 °F 29.9 in ENE 6.2 mph 12.5 mph 70% 0 in
17:49 78.6 °F 68 °F 30 in Este 6 mph 13 mph 70% 0 in
17:54 78.4 °F 67.8 °F 30 in ENE 5.4 mph 13.8 mph 70% 0 in
17:59 78.3 °F 67.8 °F 30 in ENE 5.6 mph 14 mph 70.2% 0 in
18:04 78.1 °F 67.5 °F 30 in ENE 6.2 mph 14 mph 70% 0 in
18:09 78.1 °F 67.5 °F 30 in NE 6.3 mph 13 mph 70.1% 0 in
18:14 78.1 °F 67.8 °F 30 in NE 6.9 mph 13 mph 70.8% 0 in
18:19 78.1 °F 67.5 °F 30 in NE 7 mph 13 mph 70.1% 0 in
18:24 77.9 °F 67.8 °F 29.9 in NE 7.6 mph 15 mph 70.9% 0 in
18:29 77.9 °F 67.8 °F 29.9 in NE 7.7 mph 15 mph 71.5% 0 in
18:34 77.7 °F 67.5 °F 29.9 in NE 8.1 mph 13 mph 71% 0 in
18:39 77.4 °F 67.6 °F 29.9 in NE 8.3 mph 16.1 mph 72% 0 in
18:44 77 °F 67.6 °F 29.9 in NE 9.2 mph 16.8 mph 73% 0 in
18:49 76.8 °F 67.5 °F 29.9 in NE 9.1 mph 17.3 mph 73% 0 in
18:54 76.6 °F 67.5 °F 29.9 in NE 8.7 mph 15 mph 73% 0 in
18:59 76.6 °F 67.5 °F 29.9 in NE 8.6 mph 16.1 mph 73.4% 0 in
19:04 76.5 °F 67.6 °F 29.9 in NE 8.1 mph 17.5 mph 74% 0 in
19:09 76.5 °F 67.6 °F 29.9 in NE 8.4 mph 17.3 mph 74% 0 in
19:14 76.3 °F 67.6 °F 29.9 in NE 9.7 mph 15 mph 74.5% 0 in
19:19 76.1 °F 67.6 °F 30 in NE 9.2 mph 13 mph 75% 0 in
19:24 75.9 °F 67.8 °F 30 in NE 7.4 mph 13.5 mph 75.9% 0 in
19:29 75.7 °F 67.6 °F 30 in NE 7.5 mph 14 mph 76% 0 in
19:34 75.6 °F 67.6 °F 30 in NE 8.1 mph 12.7 mph 76.3% 0 in
19:39 75.6 °F 67.8 °F 30 in NE 7.8 mph 13 mph 77% 0 in
19:44 75.4 °F 67.8 °F 30 in NE 6.4 mph 10.7 mph 77.7% 0 in
19:49 75 °F 67.8 °F 30 in NE 6.3 mph 11 mph 78.2% 0 in
19:54 74.8 °F 68 °F 30 in NE 6.2 mph 10 mph 79% 0 in
19:59 74.8 °F 68 °F 30 in ENE 5.4 mph 7 mph 79.1% 0 in
20:04 74.7 °F 68.2 °F 30 in NE 3.1 mph 6 mph 80% 0 in
20:09 74.7 °F 68.2 °F 30 in NE 3.1 mph 6 mph 80.6% 0 in
20:14 74.5 °F 68.4 °F 30 in NE 3.1 mph 6.9 mph 81.1% 0 in
20:19 74.5 °F 68.5 °F 30 in NE 3.2 mph 7 mph 82% 0 in
20:24 74.3 °F 68.4 °F 30 in NE 3.6 mph 7 mph 82% 0 in
20:29 74.3 °F 68.7 °F 30 in NE 3.7 mph 6 mph 83% 0 in
20:34 74.1 °F 68.5 °F 30 in NE 4 mph 5 mph 83% 0 in
20:39 74.1 °F 68.5 °F 30 in NE 3.8 mph 5.2 mph 83% 0 in
20:44 74.1 °F 68.5 °F 30 in NE 3.1 mph 5.2 mph 83% 0 in
20:49 73.9 °F 68.7 °F 30 in NNE 3 mph 5 mph 83.8% 0 in
20:54 73.9 °F 68.7 °F 30 in North 2.9 mph 3.6 mph 84% 0 in
20:59 73.9 °F 68.7 °F 30 in North 2.6 mph 4 mph 84% 0 in
21:04 73.9 °F 68.7 °F 30 in NNE 1.8 mph 6.2 mph 84% 0 in
21:09 73.8 °F 68.5 °F 30 in NNE 2.1 mph 6 mph 84% 0 in
21:14 73.8 °F 68.9 °F 30 in NE 3.1 mph 6.9 mph 84.8% 0 in
21:19 73.6 °F 68.7 °F 30 in NE 3.3 mph 7 mph 85% 0 in
21:24 73.6 °F 68.7 °F 30 in NNE 4 mph 6.9 mph 85% 0 in
21:29 73.6 °F 68.9 °F 30 in NE 3.8 mph 7 mph 85.3% 0 in
21:34 73.4 °F 68.9 °F 30 in NE 2.9 mph 6.2 mph 86% 0 in
21:39 73.2 °F 68.7 °F 30 in NE 2.9 mph 6 mph 86% 0 in
21:44 73.2 °F 68.7 °F 30 in NE 3.1 mph 6 mph 86% 0 in
21:49 73 °F 68.9 °F 30 in NE 3.2 mph 7.4 mph 86.7% 0 in
21:54 73 °F 68.9 °F 30 in NE 3.6 mph 7 mph 87% 0 in
21:59 73 °F 68.9 °F 30 in NE 3.6 mph 7 mph 87% 0 in
22:04 72.9 °F 68.9 °F 30 in NE 3.6 mph 6.9 mph 87% 0 in
22:09 72.9 °F 68.9 °F 30 in NE 3.7 mph 8.5 mph 87.3% 0 in
22:14 72.9 °F 69.1 °F 30 in NE 4 mph 9 mph 88% 0 in
22:19 72.9 °F 69.1 °F 30 in NE 4.2 mph 8.5 mph 88% 0 in
22:24 72.7 °F 68.9 °F 30 in NE 4.7 mph 9 mph 88% 0 in
22:29 72.7 °F 68.9 °F 30 in NE 4.8 mph 9.2 mph 88% 0 in
22:34 72.7 °F 69.1 °F 30 in NE 5.2 mph 9 mph 88.8% 0 in
22:39 72.5 °F 69.1 °F 30 in NE 5.1 mph 10 mph 89% 0 in
22:44 72.5 °F 69.1 °F 30 in NE 4.7 mph 10.4 mph 89% 0 in
22:49 72.3 °F 68.9 °F 30 in NE 4.8 mph 8.1 mph 89% 0 in
22:54 72.3 °F 68.9 °F 30 in NE 5.2 mph 8 mph 89% 0 in
22:59 72.3 °F 68.9 °F 30 in NE 5 mph 7 mph 89% 0 in
23:04 72.3 °F 68.9 °F 30 in NE 4.3 mph 7 mph 89% 0 in
23:09 72.1 °F 68.7 °F 30 in NE 4.3 mph 7 mph 89% 0 in
23:14 72.1 °F 68.7 °F 30 in NE 4.3 mph 7 mph 89% 0 in
23:19 72.1 °F 68.7 °F 30 in NE 4.2 mph 6.2 mph 89% 0 in
23:24 72 °F 68.5 °F 30 in ENE 3.6 mph 6 mph 89% 0 in
23:29 72 °F 68.5 °F 30 in NE 3.5 mph 6 mph 89% 0 in
23:34 72 °F 68.5 °F 30 in ENE 2.9 mph 5 mph 89% 0 in
23:39 72 °F 68.7 °F 30 in ENE 2.8 mph 5.2 mph 89.6% 0 in
23:44 72 °F 68.9 °F 30 in NE 2.4 mph 5 mph 90% 0 in
23:49 72 °F 68.9 °F 30 in NE 2.3 mph 5 mph 90% 0 in
23:54 72 °F 68.9 °F 30 in NE 2 mph 4.7 mph 90% 0 in
23:59 72 °F 68.9 °F 30 in ENE 2.1 mph 5 mph 90% 0 in
Murcia-Puente Tocinos, España
Compliments of Weather Underground - 3 mb

La estación de MeteoMurcia.com, publica sus datos en los siguientes proyectos:

Weather Underground PWS IMURCIAP2 Meteoclimatic www.awekas.at

W3Counter
Web Analytics